sensor_id;sensor_type;location;lat;lon;timestamp;noise_LAeq;noise_LA_min;noise_LA_max;noise_LA01;noise_LA95
76217;Laerm;65010;50.190;18.930;2023-04-06T00:01:22;39.64;37.78;41.53;;
76217;Laerm;65010;50.190;18.930;2023-04-06T00:04:29;39.79;37.58;42.14;;
76217;Laerm;65010;50.190;18.930;2023-04-06T00:07:34;39.84;37.60;41.82;;
76217;Laerm;65010;50.190;18.930;2023-04-06T00:10:41;39.62;37.00;41.70;;
76217;Laerm;65010;50.190;18.930;2023-04-06T00:13:50;38.04;35.47;42.57;;
76217;Laerm;65010;50.190;18.930;2023-04-06T00:16:56;38.23;35.56;43.68;;
76217;Laerm;65010;50.190;18.930;2023-04-06T00:20:03;38.31;34.84;41.80;;
76217;Laerm;65010;50.190;18.930;2023-04-06T00:23:10;38.13;36.37;40.22;;
76217;Laerm;65010;50.190;18.930;2023-04-06T00:26:16;38.94;36.52;46.79;;
76217;Laerm;65010;50.190;18.930;2023-04-06T00:29:28;41.23;38.13;47.25;;
76217;Laerm;65010;50.190;18.930;2023-04-06T00:32:34;40.32;37.99;45.33;;
76217;Laerm;65010;50.190;18.930;2023-04-06T00:35:41;38.73;35.04;51.74;;
76217;Laerm;65010;50.190;18.930;2023-04-06T00:38:47;39.27;35.47;59.33;;
76217;Laerm;65010;50.190;18.930;2023-04-06T00:41:54;40.02;38.22;42.30;;
76217;Laerm;65010;50.190;18.930;2023-04-06T00:45:04;40.11;38.11;42.48;;
76217;Laerm;65010;50.190;18.930;2023-04-06T00:48:11;39.96;37.66;42.09;;
76217;Laerm;65010;50.190;18.930;2023-04-06T00:51:17;44.90;37.55;65.66;;
76217;Laerm;65010;50.190;18.930;2023-04-06T00:54:23;39.52;37.64;41.78;;
76217;Laerm;65010;50.190;18.930;2023-04-06T00:57:31;39.64;37.75;42.33;;
76217;Laerm;65010;50.190;18.930;2023-04-06T01:00:40;39.57;37.63;41.65;;
76217;Laerm;65010;50.190;18.930;2023-04-06T01:03:52;42.36;37.98;58.41;;
76217;Laerm;65010;50.190;18.930;2023-04-06T01:06:59;39.91;37.73;45.77;;
76217;Laerm;65010;50.190;18.930;2023-04-06T01:10:23;39.99;37.90;42.15;;
76217;Laerm;65010;50.190;18.930;2023-04-06T01:13:58;38.86;34.80;45.57;;
76217;Laerm;65010;50.190;18.930;2023-04-06T01:17:26;36.92;34.65;41.24;;
76217;Laerm;65010;50.190;18.930;2023-04-06T01:20:40;35.98;34.26;53.13;;
76217;Laerm;65010;50.190;18.930;2023-04-06T01:23:49;35.54;34.03;37.88;;
76217;Laerm;65010;50.190;18.930;2023-04-06T01:27:03;35.69;34.30;37.23;;
76217;Laerm;65010;50.190;18.930;2023-04-06T01:30:32;36.07;34.51;37.91;;
76217;Laerm;65010;50.190;18.930;2023-04-06T01:33:46;36.02;34.52;41.50;;
76217;Laerm;65010;50.190;18.930;2023-04-06T01:36:55;35.98;34.66;37.64;;
76217;Laerm;65010;50.190;18.930;2023-04-06T01:40:09;36.12;34.52;38.07;;
76217;Laerm;65010;50.190;18.930;2023-04-06T01:43:22;36.41;34.91;37.85;;
76217;Laerm;65010;50.190;18.930;2023-04-06T01:46:40;36.60;34.94;38.34;;
76217;Laerm;65010;50.190;18.930;2023-04-06T01:49:52;36.04;34.55;37.39;;
76217;Laerm;65010;50.190;18.930;2023-04-06T01:52:58;36.12;34.66;37.29;;
76217;Laerm;65010;50.190;18.930;2023-04-06T01:56:09;36.13;34.93;37.67;;
76217;Laerm;65010;50.190;18.930;2023-04-06T01:59:21;36.19;34.67;38.44;;
76217;Laerm;65010;50.190;18.930;2023-04-06T02:02:29;41.93;35.02;61.39;;
76217;Laerm;65010;50.190;18.930;2023-04-06T02:05:39;36.28;34.84;42.83;;
76217;Laerm;65010;50.190;18.930;2023-04-06T02:09:03;40.49;34.87;59.29;;
76217;Laerm;65010;50.190;18.930;2023-04-06T02:12:12;36.10;34.74;37.47;;
76217;Laerm;65010;50.190;18.930;2023-04-06T02:15:19;36.07;34.73;37.49;;
76217;Laerm;65010;50.190;18.930;2023-04-06T02:18:24;42.30;34.60;61.66;;
76217;Laerm;65010;50.190;18.930;2023-04-06T02:21:31;36.23;34.78;41.16;;
76217;Laerm;65010;50.190;18.930;2023-04-06T02:24:37;36.21;34.89;45.16;;
76217;Laerm;65010;50.190;18.930;2023-04-06T02:27:46;36.13;34.85;37.56;;
76217;Laerm;65010;50.190;18.930;2023-04-06T02:30:52;36.20;34.94;38.29;;
76217;Laerm;65010;50.190;18.930;2023-04-06T02:34:02;38.87;36.71;45.41;;
76217;Laerm;65010;50.190;18.930;2023-04-06T02:37:08;38.71;36.72;45.29;;
76217;Laerm;65010;50.190;18.930;2023-04-06T02:40:15;40.08;37.96;50.82;;
76217;Laerm;65010;50.190;18.930;2023-04-06T02:43:23;39.91;37.97;41.75;;
76217;Laerm;65010;50.190;18.930;2023-04-06T02:46:41;40.03;37.96;43.54;;
76217;Laerm;65010;50.190;18.930;2023-04-06T02:49:47;39.60;37.21;42.90;;
76217;Laerm;65010;50.190;18.930;2023-04-06T02:52:54;39.54;37.01;42.08;;
76217;Laerm;65010;50.190;18.930;2023-04-06T02:56:00;40.33;38.38;48.42;;
76217;Laerm;65010;50.190;18.930;2023-04-06T02:59:23;40.29;38.35;42.44;;
76217;Laerm;65010;50.190;18.930;2023-04-06T03:02:38;40.24;38.27;42.26;;
76217;Laerm;65010;50.190;18.930;2023-04-06T03:05:48;40.23;38.41;43.42;;
76217;Laerm;65010;50.190;18.930;2023-04-06T03:09:01;41.34;37.93;52.84;;
76217;Laerm;65010;50.190;18.930;2023-04-06T03:12:09;39.86;37.87;41.91;;
76217;Laerm;65010;50.190;18.930;2023-04-06T03:15:44;40.07;38.06;50.01;;
76217;Laerm;65010;50.190;18.930;2023-04-06T03:18:56;42.76;37.80;60.75;;
76217;Laerm;65010;50.190;18.930;2023-04-06T03:22:03;39.12;35.55;52.53;;
76217;Laerm;65010;50.190;18.930;2023-04-06T03:25:10;40.15;35.93;57.86;;
76217;Laerm;65010;50.190;18.930;2023-04-06T03:28:19;45.09;38.18;63.73;;
76217;Laerm;65010;50.190;18.930;2023-04-06T03:31:37;47.55;38.94;66.63;;
76217;Laerm;65010;50.190;18.930;2023-04-06T03:35:06;49.13;38.86;66.23;;
76217;Laerm;65010;50.190;18.930;2023-04-06T03:38:13;48.79;38.57;66.86;;
76217;Laerm;65010;50.190;18.930;2023-04-06T03:41:19;48.34;38.88;63.03;;
76217;Laerm;65010;50.190;18.930;2023-04-06T03:44:33;47.92;38.59;61.41;;
76217;Laerm;65010;50.190;18.930;2023-04-06T03:47:44;48.44;35.90;60.21;;
76217;Laerm;65010;50.190;18.930;2023-04-06T03:50:51;43.15;35.68;63.00;;
76217;Laerm;65010;50.190;18.930;2023-04-06T03:53:56;47.25;35.63;64.15;;
76217;Laerm;65010;50.190;18.930;2023-04-06T03:57:04;46.59;37.53;66.01;;
76217;Laerm;65010;50.190;18.930;2023-04-06T04:00:12;43.52;37.82;59.15;;
76217;Laerm;65010;50.190;18.930;2023-04-06T04:03:21;45.71;38.53;66.52;;
76217;Laerm;65010;50.190;18.930;2023-04-06T04:06:29;44.32;38.69;63.79;;
76217;Laerm;65010;50.190;18.930;2023-04-06T04:09:37;40.89;38.95;43.81;;
76217;Laerm;65010;50.190;18.930;2023-04-06T04:12:43;41.24;36.46;52.95;;
76217;Laerm;65010;50.190;18.930;2023-04-06T04:15:49;44.83;36.36;64.38;;
76217;Laerm;65010;50.190;18.930;2023-04-06T04:18:59;44.63;38.49;65.64;;
76217;Laerm;65010;50.190;18.930;2023-04-06T04:22:06;47.49;38.97;66.12;;
76217;Laerm;65010;50.190;18.930;2023-04-06T04:25:14;46.57;38.82;65.84;;
76217;Laerm;65010;50.190;18.930;2023-04-06T04:28:24;44.71;38.65;64.32;;
76217;Laerm;65010;50.190;18.930;2023-04-06T04:31:31;46.49;38.12;63.73;;
76217;Laerm;65010;50.190;18.930;2023-04-06T04:34:43;47.41;38.34;65.71;;
76217;Laerm;65010;50.190;18.930;2023-04-06T04:38:01;40.59;38.61;45.58;;
76217;Laerm;65010;50.190;18.930;2023-04-06T04:41:11;48.69;39.08;65.32;;
76217;Laerm;65010;50.190;18.930;2023-04-06T04:44:19;50.57;39.13;67.13;;
76217;Laerm;65010;50.190;18.930;2023-04-06T04:47:26;45.46;38.77;63.24;;
76217;Laerm;65010;50.190;18.930;2023-04-06T04:50:35;41.32;39.16;46.82;;
76217;Laerm;65010;50.190;18.930;2023-04-06T04:53:41;47.47;38.94;65.88;;
76217;Laerm;65010;50.190;18.930;2023-04-06T04:56:56;46.91;38.85;64.32;;
76217;Laerm;65010;50.190;18.930;2023-04-06T05:00:21;52.29;38.41;71.81;;
76217;Laerm;65010;50.190;18.930;2023-04-06T05:03:32;47.76;38.21;64.54;;
76217;Laerm;65010;50.190;18.930;2023-04-06T05:06:45;47.90;38.87;65.09;;
76217;Laerm;65010;50.190;18.930;2023-04-06T05:09:51;49.74;38.43;66.72;;
76217;Laerm;65010;50.190;18.930;2023-04-06T05:13:01;47.42;38.68;65.58;;
76217;Laerm;65010;50.190;18.930;2023-04-06T05:16:07;51.27;38.60;69.08;;
76217;Laerm;65010;50.190;18.930;2023-04-06T05:19:14;48.06;38.46;67.30;;
76217;Laerm;65010;50.190;18.930;2023-04-06T05:22:24;41.18;38.88;52.00;;
76217;Laerm;65010;50.190;18.930;2023-04-06T05:25:40;46.82;38.19;66.45;;
76217;Laerm;65010;50.190;18.930;2023-04-06T05:28:52;47.10;36.34;63.12;;
76217;Laerm;65010;50.190;18.930;2023-04-06T05:32:00;47.92;36.45;65.35;;
76217;Laerm;65010;50.190;18.930;2023-04-06T05:35:08;47.00;38.76;64.83;;
76217;Laerm;65010;50.190;18.930;2023-04-06T05:38:20;46.99;39.11;62.20;;
76217;Laerm;65010;50.190;18.930;2023-04-06T05:41:28;50.08;39.11;63.97;;
76217;Laerm;65010;50.190;18.930;2023-04-06T05:44:37;45.53;38.49;62.85;;
76217;Laerm;65010;50.190;18.930;2023-04-06T05:48:04;46.88;38.02;62.46;;
76217;Laerm;65010;50.190;18.930;2023-04-06T05:51:14;47.15;38.46;68.44;;
76217;Laerm;65010;50.190;18.930;2023-04-06T05:54:26;50.08;38.70;65.65;;
76217;Laerm;65010;50.190;18.930;2023-04-06T05:57:37;46.98;38.58;63.99;;
76217;Laerm;65010;50.190;18.930;2023-04-06T06:00:43;40.73;38.40;49.81;;
76217;Laerm;65010;50.190;18.930;2023-04-06T06:04:00;48.81;38.58;68.45;;
76217;Laerm;65010;50.190;18.930;2023-04-06T06:07:10;51.25;38.55;66.54;;
76217;Laerm;65010;50.190;18.930;2023-04-06T06:10:29;49.49;37.78;65.10;;
76217;Laerm;65010;50.190;18.930;2023-04-06T06:13:35;51.13;38.92;65.34;;
76217;Laerm;65010;50.190;18.930;2023-04-06T06:16:42;48.01;38.60;61.36;;
76217;Laerm;65010;50.190;18.930;2023-04-06T06:19:50;48.95;38.81;66.59;;
76217;Laerm;65010;50.190;18.930;2023-04-06T06:22:57;49.57;38.54;66.91;;
76217;Laerm;65010;50.190;18.930;2023-04-06T06:26:05;51.12;38.98;66.94;;
76217;Laerm;65010;50.190;18.930;2023-04-06T06:29:12;46.30;36.60;60.03;;
76217;Laerm;65010;50.190;18.930;2023-04-06T06:32:18;48.34;38.67;65.68;;
76217;Laerm;65010;50.190;18.930;2023-04-06T06:35:27;48.87;38.95;63.21;;
76217;Laerm;65010;50.190;18.930;2023-04-06T06:38:37;46.12;38.50;64.48;;
76217;Laerm;65010;50.190;18.930;2023-04-06T06:41:47;50.95;38.19;69.38;;
76217;Laerm;65010;50.190;18.930;2023-04-06T06:44:57;51.80;38.16;70.99;;
76217;Laerm;65010;50.190;18.930;2023-04-06T06:48:04;47.26;38.29;62.76;;
76217;Laerm;65010;50.190;18.930;2023-04-06T06:51:10;48.49;38.05;65.13;;
76217;Laerm;65010;50.190;18.930;2023-04-06T06:54:17;45.02;38.07;61.58;;
76217;Laerm;65010;50.190;18.930;2023-04-06T06:57:25;45.08;37.97;63.87;;
76217;Laerm;65010;50.190;18.930;2023-04-06T07:00:35;52.41;38.46;68.06;;
76217;Laerm;65010;50.190;18.930;2023-04-06T07:03:41;46.70;38.11;63.82;;
76217;Laerm;65010;50.190;18.930;2023-04-06T07:06:48;49.37;37.94;64.88;;
76217;Laerm;65010;50.190;18.930;2023-04-06T07:09:55;51.68;38.17;70.08;;
76217;Laerm;65010;50.190;18.930;2023-04-06T07:13:04;51.48;35.14;66.28;;
76217;Laerm;65010;50.190;18.930;2023-04-06T07:16:10;46.52;36.77;67.75;;
76217;Laerm;65010;50.190;18.930;2023-04-06T07:19:17;45.90;36.67;62.98;;
76217;Laerm;65010;50.190;18.930;2023-04-06T07:22:23;48.80;38.13;64.48;;
76217;Laerm;65010;50.190;18.930;2023-04-06T07:25:30;49.76;38.30;67.36;;
76217;Laerm;65010;50.190;18.930;2023-04-06T07:28:40;47.13;37.90;66.31;;
76217;Laerm;65010;50.190;18.930;2023-04-06T07:31:48;51.03;38.16;72.16;;
76217;Laerm;65010;50.190;18.930;2023-04-06T07:34:54;51.35;37.78;69.16;;
76217;Laerm;65010;50.190;18.930;2023-04-06T07:38:05;46.19;37.53;67.19;;
76217;Laerm;65010;50.190;18.930;2023-04-06T07:41:12;46.84;37.80;68.13;;
76217;Laerm;65010;50.190;18.930;2023-04-06T07:44:21;50.15;38.04;65.72;;
76217;Laerm;65010;50.190;18.930;2023-04-06T07:47:27;47.08;37.65;69.68;;
76217;Laerm;65010;50.190;18.930;2023-04-06T07:50:34;50.55;37.26;68.15;;
76217;Laerm;65010;50.190;18.930;2023-04-06T07:53:41;51.31;35.41;69.40;;
76217;Laerm;65010;50.190;18.930;2023-04-06T07:56:47;49.65;36.16;66.97;;
76217;Laerm;65010;50.190;18.930;2023-04-06T07:59:56;49.89;36.67;66.29;;
76217;Laerm;65010;50.190;18.930;2023-04-06T08:03:02;51.31;37.06;64.71;;
76217;Laerm;65010;50.190;18.930;2023-04-06T08:06:08;50.50;36.98;66.13;;
76217;Laerm;65010;50.190;18.930;2023-04-06T08:09:15;48.23;36.77;64.50;;
76217;Laerm;65010;50.190;18.930;2023-04-06T08:12:20;46.51;37.96;62.14;;
76217;Laerm;65010;50.190;18.930;2023-04-06T08:15:30;43.87;38.80;58.07;;
76217;Laerm;65010;50.190;18.930;2023-04-06T08:18:37;50.38;37.95;64.19;;
76217;Laerm;65010;50.190;18.930;2023-04-06T08:21:44;48.71;37.04;65.44;;
76217;Laerm;65010;50.190;18.930;2023-04-06T08:24:51;50.77;36.66;68.86;;
76217;Laerm;65010;50.190;18.930;2023-04-06T08:27:57;49.09;36.83;64.72;;
76217;Laerm;65010;50.190;18.930;2023-04-06T08:31:08;47.20;36.94;64.21;;
76217;Laerm;65010;50.190;18.930;2023-04-06T08:34:15;52.91;36.56;68.62;;
76217;Laerm;65010;50.190;18.930;2023-04-06T08:37:21;46.67;36.61;63.57;;
76217;Laerm;65010;50.190;18.930;2023-04-06T08:40:28;45.32;37.18;62.25;;
76217;Laerm;65010;50.190;18.930;2023-04-06T08:43:46;47.13;36.36;68.02;;
76217;Laerm;65010;50.190;18.930;2023-04-06T08:46:56;51.62;35.16;69.33;;
76217;Laerm;65010;50.190;18.930;2023-04-06T08:50:05;50.04;35.18;66.70;;
76217;Laerm;65010;50.190;18.930;2023-04-06T08:53:12;49.63;35.26;65.26;;
76217;Laerm;65010;50.190;18.930;2023-04-06T08:56:19;49.71;35.13;62.45;;
76217;Laerm;65010;50.190;18.930;2023-04-06T08:59:26;51.22;36.11;65.17;;
76217;Laerm;65010;50.190;18.930;2023-04-06T09:02:40;46.21;36.67;63.95;;
76217;Laerm;65010;50.190;18.930;2023-04-06T09:05:50;45.10;37.04;62.13;;
76217;Laerm;65010;50.190;18.930;2023-04-06T09:08:56;50.63;38.13;66.07;;
76217;Laerm;65010;50.190;18.930;2023-04-06T09:12:03;47.10;37.37;61.82;;
76217;Laerm;65010;50.190;18.930;2023-04-06T09:15:19;45.92;36.85;64.11;;
76217;Laerm;65010;50.190;18.930;2023-04-06T09:18:34;47.51;36.05;65.14;;
76217;Laerm;65010;50.190;18.930;2023-04-06T09:21:39;63.71;36.12;87.74;;
76217;Laerm;65010;50.190;18.930;2023-04-06T09:24:49;47.02;35.92;65.26;;
76217;Laerm;65010;50.190;18.930;2023-04-06T09:28:00;48.39;36.88;64.96;;
76217;Laerm;65010;50.190;18.930;2023-04-06T09:31:07;50.18;37.07;69.22;;
76217;Laerm;65010;50.190;18.930;2023-04-06T09:34:23;54.25;37.01;78.93;;
76217;Laerm;65010;50.190;18.930;2023-04-06T09:37:29;48.02;36.03;63.61;;
76217;Laerm;65010;50.190;18.930;2023-04-06T09:40:35;47.74;35.06;62.57;;
76217;Laerm;65010;50.190;18.930;2023-04-06T09:44:04;44.97;35.53;66.17;;
76217;Laerm;65010;50.190;18.930;2023-04-06T09:47:11;45.14;35.08;72.03;;
76217;Laerm;65010;50.190;18.930;2023-04-06T09:50:22;44.85;36.89;61.18;;
76217;Laerm;65010;50.190;18.930;2023-04-06T09:53:34;44.72;36.87;61.35;;
76217;Laerm;65010;50.190;18.930;2023-04-06T09:56:51;46.05;37.61;63.52;;
76217;Laerm;65010;50.190;18.930;2023-04-06T10:00:05;50.14;37.57;67.87;;
76217;Laerm;65010;50.190;18.930;2023-04-06T10:03:36;48.72;37.57;62.68;;
76217;Laerm;65010;50.190;18.930;2023-04-06T10:06:47;49.76;36.60;64.88;;
76217;Laerm;65010;50.190;18.930;2023-04-06T10:09:56;58.91;36.65;79.78;;
76217;Laerm;65010;50.190;18.930;2023-04-06T10:13:04;46.10;36.73;62.66;;
76217;Laerm;65010;50.190;18.930;2023-04-06T10:16:14;47.91;36.57;63.83;;
76217;Laerm;65010;50.190;18.930;2023-04-06T10:19:28;49.68;37.60;69.33;;
76217;Laerm;65010;50.190;18.930;2023-04-06T10:22:51;50.09;37.53;65.03;;
76217;Laerm;65010;50.190;18.930;2023-04-06T10:26:01;44.45;35.48;62.48;;
76217;Laerm;65010;50.190;18.930;2023-04-06T10:29:10;49.33;35.27;66.31;;
76217;Laerm;65010;50.190;18.930;2023-04-06T10:32:16;51.18;35.79;68.63;;
76217;Laerm;65010;50.190;18.930;2023-04-06T10:35:23;49.81;36.28;69.17;;
76217;Laerm;65010;50.190;18.930;2023-04-06T10:38:41;47.55;36.83;64.91;;
76217;Laerm;65010;50.190;18.930;2023-04-06T10:41:48;50.13;37.12;65.30;;
76217;Laerm;65010;50.190;18.930;2023-04-06T10:44:54;52.47;37.01;68.51;;
76217;Laerm;65010;50.190;18.930;2023-04-06T10:48:12;49.12;36.96;66.91;;
76217;Laerm;65010;50.190;18.930;2023-04-06T10:51:24;48.78;36.73;65.35;;
76217;Laerm;65010;50.190;18.930;2023-04-06T10:54:42;51.92;37.00;67.29;;
76217;Laerm;65010;50.190;18.930;2023-04-06T10:57:52;48.84;36.99;62.94;;
76217;Laerm;65010;50.190;18.930;2023-04-06T11:00:59;48.36;36.78;64.47;;
76217;Laerm;65010;50.190;18.930;2023-04-06T11:04:05;48.57;37.18;62.90;;
76217;Laerm;65010;50.190;18.930;2023-04-06T11:07:23;47.82;36.78;70.17;;
76217;Laerm;65010;50.190;18.930;2023-04-06T11:10:32;47.81;35.54;62.28;;
76217;Laerm;65010;50.190;18.930;2023-04-06T11:13:44;48.99;35.19;67.80;;
76217;Laerm;65010;50.190;18.930;2023-04-06T11:16:50;48.74;35.15;63.67;;
76217;Laerm;65010;50.190;18.930;2023-04-06T11:19:58;49.68;35.13;71.93;;
76217;Laerm;65010;50.190;18.930;2023-04-06T11:23:04;48.96;35.33;62.47;;
76217;Laerm;65010;50.190;18.930;2023-04-06T11:26:15;48.50;37.02;65.23;;
76217;Laerm;65010;50.190;18.930;2023-04-06T11:29:23;51.57;37.21;67.74;;
76217;Laerm;65010;50.190;18.930;2023-04-06T11:32:41;46.86;36.49;63.83;;
76217;Laerm;65010;50.190;18.930;2023-04-06T11:35:48;46.72;37.64;64.32;;
76217;Laerm;65010;50.190;18.930;2023-04-06T11:38:56;47.18;36.46;65.18;;
76217;Laerm;65010;50.190;18.930;2023-04-06T11:42:05;45.90;36.29;62.61;;
76217;Laerm;65010;50.190;18.930;2023-04-06T11:45:15;50.97;35.98;63.95;;
76217;Laerm;65010;50.190;18.930;2023-04-06T11:48:21;47.09;35.93;63.74;;
76217;Laerm;65010;50.190;18.930;2023-04-06T11:51:30;39.27;35.73;46.45;;
76217;Laerm;65010;50.190;18.930;2023-04-06T11:54:37;48.97;36.99;64.24;;
76217;Laerm;65010;50.190;18.930;2023-04-06T11:57:46;49.99;37.23;64.37;;
76217;Laerm;65010;50.190;18.930;2023-04-06T12:01:03;48.30;36.10;63.30;;
76217;Laerm;65010;50.190;18.930;2023-04-06T12:04:10;46.84;35.03;67.04;;
76217;Laerm;65010;50.190;18.930;2023-04-06T12:07:16;50.67;34.89;68.83;;
76217;Laerm;65010;50.190;18.930;2023-04-06T12:10:22;48.82;35.67;66.76;;
76217;Laerm;65010;50.190;18.930;2023-04-06T12:13:31;55.70;37.01;74.73;;
76217;Laerm;65010;50.190;18.930;2023-04-06T12:16:37;49.48;37.32;63.80;;
76217;Laerm;65010;50.190;18.930;2023-04-06T12:19:43;46.72;36.69;62.70;;
76217;Laerm;65010;50.190;18.930;2023-04-06T12:22:49;53.68;37.52;73.53;;
76217;Laerm;65010;50.190;18.930;2023-04-06T12:25:55;48.12;37.35;64.39;;
76217;Laerm;65010;50.190;18.930;2023-04-06T12:29:04;50.03;37.17;63.26;;
76217;Laerm;65010;50.190;18.930;2023-04-06T12:32:10;50.56;39.57;66.37;;
76217;Laerm;65010;50.190;18.930;2023-04-06T12:35:17;51.17;39.57;66.63;;
76217;Laerm;65010;50.190;18.930;2023-04-06T12:38:23;48.93;36.79;62.39;;
76217;Laerm;65010;50.190;18.930;2023-04-06T12:41:30;51.30;38.44;68.05;;
76217;Laerm;65010;50.190;18.930;2023-04-06T12:44:39;50.56;39.14;68.64;;
76217;Laerm;65010;50.190;18.930;2023-04-06T12:47:46;51.45;38.48;71.35;;
76217;Laerm;65010;50.190;18.930;2023-04-06T12:50:54;49.04;35.46;65.62;;
76217;Laerm;65010;50.190;18.930;2023-04-06T12:54:01;44.24;38.53;59.66;;
76217;Laerm;65010;50.190;18.930;2023-04-06T12:57:07;47.35;36.47;64.98;;
76217;Laerm;65010;50.190;18.930;2023-04-06T13:00:18;47.60;36.97;64.91;;
76217;Laerm;65010;50.190;18.930;2023-04-06T13:03:25;49.83;37.46;62.64;;
76217;Laerm;65010;50.190;18.930;2023-04-06T13:06:33;51.85;38.34;65.56;;
76217;Laerm;65010;50.190;18.930;2023-04-06T13:09:39;50.92;38.61;65.25;;
76217;Laerm;65010;50.190;18.930;2023-04-06T13:12:48;50.53;37.50;65.17;;
76217;Laerm;65010;50.190;18.930;2023-04-06T13:16:02;49.46;37.61;63.03;;
76217;Laerm;65010;50.190;18.930;2023-04-06T13:19:09;49.60;38.34;77.00;;
76217;Laerm;65010;50.190;18.930;2023-04-06T13:22:15;47.73;35.92;63.48;;
76217;Laerm;65010;50.190;18.930;2023-04-06T13:25:24;51.78;37.82;77.38;;
76217;Laerm;65010;50.190;18.930;2023-04-06T13:28:32;48.58;37.21;65.19;;
76217;Laerm;65010;50.190;18.930;2023-04-06T13:31:43;50.91;36.99;68.62;;
76217;Laerm;65010;50.190;18.930;2023-04-06T13:34:49;49.90;37.09;68.42;;
76217;Laerm;65010;50.190;18.930;2023-04-06T13:37:56;48.54;37.75;61.58;;
76217;Laerm;65010;50.190;18.930;2023-04-06T13:41:02;50.84;35.48;65.97;;
76217;Laerm;65010;50.190;18.930;2023-04-06T13:44:08;47.57;35.44;62.14;;
76217;Laerm;65010;50.190;18.930;2023-04-06T13:47:17;47.04;35.63;65.61;;
76217;Laerm;65010;50.190;18.930;2023-04-06T13:50:26;50.77;37.40;69.04;;
76217;Laerm;65010;50.190;18.930;2023-04-06T13:53:31;49.04;37.70;61.94;;
76217;Laerm;65010;50.190;18.930;2023-04-06T13:56:38;47.63;37.52;63.44;;
76217;Laerm;65010;50.190;18.930;2023-04-06T13:59:44;48.11;38.53;63.44;;
76217;Laerm;65010;50.190;18.930;2023-04-06T14:02:54;50.86;38.52;65.83;;
76217;Laerm;65010;50.190;18.930;2023-04-06T14:06:09;49.67;38.70;64.60;;
76217;Laerm;65010;50.190;18.930;2023-04-06T14:09:19;52.64;38.30;70.83;;
76217;Laerm;65010;50.190;18.930;2023-04-06T14:12:28;51.33;37.78;69.18;;
76217;Laerm;65010;50.190;18.930;2023-04-06T14:15:35;49.20;38.43;63.54;;
76217;Laerm;65010;50.190;18.930;2023-04-06T14:18:44;49.11;34.99;64.23;;
76217;Laerm;65010;50.190;18.930;2023-04-06T14:21:50;49.59;35.29;61.36;;
76217;Laerm;65010;50.190;18.930;2023-04-06T14:24:56;52.30;35.12;70.66;;
76217;Laerm;65010;50.190;18.930;2023-04-06T14:28:03;48.60;35.34;62.09;;
76217;Laerm;65010;50.190;18.930;2023-04-06T14:31:13;48.95;37.34;63.80;;
76217;Laerm;65010;50.190;18.930;2023-04-06T14:34:23;48.24;37.35;64.55;;
76217;Laerm;65010;50.190;18.930;2023-04-06T14:37:28;46.87;37.32;61.30;;
76217;Laerm;65010;50.190;18.930;2023-04-06T14:40:35;51.07;37.88;66.86;;
76217;Laerm;65010;50.190;18.930;2023-04-06T14:43:42;49.25;38.21;62.91;;
76217;Laerm;65010;50.190;18.930;2023-04-06T14:46:49;51.51;38.23;64.28;;
76217;Laerm;65010;50.190;18.930;2023-04-06T14:49:57;49.59;37.65;63.23;;
76217;Laerm;65010;50.190;18.930;2023-04-06T14:53:03;49.19;34.86;66.76;;
76217;Laerm;65010;50.190;18.930;2023-04-06T14:56:09;48.13;35.06;62.66;;
76217;Laerm;65010;50.190;18.930;2023-04-06T14:59:16;47.67;34.83;63.39;;
76217;Laerm;65010;50.190;18.930;2023-04-06T15:02:21;51.04;37.11;65.35;;
76217;Laerm;65010;50.190;18.930;2023-04-06T15:05:34;48.07;37.20;65.89;;
76217;Laerm;65010;50.190;18.930;2023-04-06T15:08:40;49.50;37.41;63.06;;
76217;Laerm;65010;50.190;18.930;2023-04-06T15:11:46;49.52;38.35;64.92;;
76217;Laerm;65010;50.190;18.930;2023-04-06T15:14:52;46.96;38.33;63.86;;
76217;Laerm;65010;50.190;18.930;2023-04-06T15:17:59;48.46;38.13;63.19;;
76217;Laerm;65010;50.190;18.930;2023-04-06T15:21:08;51.59;38.26;68.44;;
76217;Laerm;65010;50.190;18.930;2023-04-06T15:24:14;48.83;37.75;65.69;;
76217;Laerm;65010;50.190;18.930;2023-04-06T15:27:20;51.30;37.97;65.79;;
76217;Laerm;65010;50.190;18.930;2023-04-06T15:30:27;50.52;37.61;64.47;;
76217;Laerm;65010;50.190;18.930;2023-04-06T15:33:33;52.03;34.69;68.25;;
76217;Laerm;65010;50.190;18.930;2023-04-06T15:36:44;52.87;35.83;68.85;;
76217;Laerm;65010;50.190;18.930;2023-04-06T15:39:50;51.31;34.55;65.00;;
76217;Laerm;65010;50.190;18.930;2023-04-06T15:42:56;49.09;36.86;67.76;;
76217;Laerm;65010;50.190;18.930;2023-04-06T15:46:02;49.01;37.43;64.21;;
76217;Laerm;65010;50.190;18.930;2023-04-06T15:49:09;50.38;37.81;63.81;;
76217;Laerm;65010;50.190;18.930;2023-04-06T15:52:17;52.39;38.35;67.23;;
76217;Laerm;65010;50.190;18.930;2023-04-06T15:55:25;51.48;38.12;71.07;;
76217;Laerm;65010;50.190;18.930;2023-04-06T15:58:32;46.86;38.04;62.58;;
76217;Laerm;65010;50.190;18.930;2023-04-06T16:01:39;49.34;38.10;68.04;;
76217;Laerm;65010;50.190;18.930;2023-04-06T16:04:44;46.28;37.72;64.43;;
76217;Laerm;65010;50.190;18.930;2023-04-06T16:07:54;47.22;37.56;62.08;;
76217;Laerm;65010;50.190;18.930;2023-04-06T16:10:59;45.90;34.82;65.14;;
76217;Laerm;65010;50.190;18.930;2023-04-06T16:14:06;49.33;34.68;62.59;;
76217;Laerm;65010;50.190;18.930;2023-04-06T16:17:13;50.00;35.30;64.62;;
76217;Laerm;65010;50.190;18.930;2023-04-06T16:20:19;48.83;34.80;65.14;;
76217;Laerm;65010;50.190;18.930;2023-04-06T16:23:28;46.64;37.16;64.17;;
76217;Laerm;65010;50.190;18.930;2023-04-06T16:26:36;48.11;37.23;65.76;;
76217;Laerm;65010;50.190;18.930;2023-04-06T16:29:42;47.17;37.54;63.63;;
76217;Laerm;65010;50.190;18.930;2023-04-06T16:32:49;50.61;37.83;67.17;;
76217;Laerm;65010;50.190;18.930;2023-04-06T16:35:56;49.95;38.16;67.91;;
76217;Laerm;65010;50.190;18.930;2023-04-06T16:39:06;51.28;36.06;66.68;;
76217;Laerm;65010;50.190;18.930;2023-04-06T16:42:12;46.30;36.86;60.86;;
76217;Laerm;65010;50.190;18.930;2023-04-06T16:45:22;46.07;37.25;64.35;;
76217;Laerm;65010;50.190;18.930;2023-04-06T16:48:28;47.89;37.32;65.91;;
76217;Laerm;65010;50.190;18.930;2023-04-06T16:51:34;49.14;37.90;69.30;;
76217;Laerm;65010;50.190;18.930;2023-04-06T16:54:43;49.33;37.94;69.47;;
76217;Laerm;65010;50.190;18.930;2023-04-06T16:57:54;48.20;35.78;63.83;;
76217;Laerm;65010;50.190;18.930;2023-04-06T17:01:01;45.87;34.63;64.64;;
76217;Laerm;65010;50.190;18.930;2023-04-06T17:04:08;47.53;34.89;68.78;;
76217;Laerm;65010;50.190;18.930;2023-04-06T17:07:14;50.55;35.15;64.95;;
76217;Laerm;65010;50.190;18.930;2023-04-06T17:10:23;50.17;36.88;66.00;;
76217;Laerm;65010;50.190;18.930;2023-04-06T17:13:42;49.10;36.49;65.69;;
76217;Laerm;65010;50.190;18.930;2023-04-06T17:16:49;59.83;36.78;79.51;;
76217;Laerm;65010;50.190;18.930;2023-04-06T17:19:55;47.38;38.18;62.12;;
76217;Laerm;65010;50.190;18.930;2023-04-06T17:23:02;47.88;38.06;63.00;;